Noti, Oregon
Current Conditions -  °F | °C
As of 12:54 PM on Sunday 21 Dec 2014 (Local Time) from KEUG Reporting Station
Light Rain Light Rain  
Wind Chill: 12°   Ceiling: 400
Heat Index: 12°   Visibility: 1mi
Dew Point: 11°   Wind: 8mph
Humidity: 93%   Direction: 350°N
Pressure: 30.14"   Gusts: NA
Location:  44.06°N, 123.45°W
Report Text: KEUG 212054Z 35007KT 1SM R16R/4000V5000FT -RA BR BKN004 OVC010 12/11 A3014 RMK AO2 SLP206 P0008 60013 T01220111 50012 $
Loading
Personal Weather Stations






























Interactive Weather Map New forecast layout! Learn more

10-Day Weather Forecast

Advertisements
Track Severe Weather on mobile